Nelson, Canada
Current Conditions -  °F | °C
As of 2:29 PM on Wednesday 22 Oct 2014 (Local Time) from CYCG Reporting Station
Rain Showers Rain Showers  
Wind Chill:   Ceiling: 4800
Heat Index:   Visibility: 8mi
Dew Point:   Wind: 0mph
Humidity: 100%   Direction: NA
Pressure: 29.87"   Gusts: NA
Location:  49.48°N, 117.28°W
Report Text: CYCG 222129Z 00000KT 8SM -SHRA FEW003 SCT020 OVC048 09/09 A2987 RMK SF2ST2SC4 SLP120
Loading
Personal Weather Stations






























Interactive Weather Map
Tropical Storm Tracking
New forecast layout! Learn more

10-Day Weather Forecast

Advertisements
Track Severe Weather on mobile